sensor_id;sensor_type;location;lat;lon;timestamp;P1;durP1;ratioP1;P2;durP2;ratioP2
10315;SDS011;5203;48.976;8.306;2022-09-01T00:01:55;9.27;;;8.45;;
10315;SDS011;5203;48.976;8.306;2022-09-01T00:04:23;8.80;;;8.02;;
10315;SDS011;5203;48.976;8.306;2022-09-01T00:06:53;8.82;;;7.93;;
10315;SDS011;5203;48.976;8.306;2022-09-01T00:09:21;9.52;;;8.73;;
10315;SDS011;5203;48.976;8.306;2022-09-01T00:11:49;8.48;;;7.78;;
10315;SDS011;5203;48.976;8.306;2022-09-01T00:14:20;8.57;;;7.97;;
10315;SDS011;5203;48.976;8.306;2022-09-01T00:16:48;8.90;;;8.10;;
10315;SDS011;5203;48.976;8.306;2022-09-01T00:19:14;8.32;;;7.63;;
10315;SDS011;5203;48.976;8.306;2022-09-01T00:21:41;9.32;;;8.52;;
10315;SDS011;5203;48.976;8.306;2022-09-01T00:24:08;8.50;;;7.90;;
10315;SDS011;5203;48.976;8.306;2022-09-01T00:26:36;8.45;;;7.70;;
10315;SDS011;5203;48.976;8.306;2022-09-01T00:29:02;8.82;;;7.97;;
10315;SDS011;5203;48.976;8.306;2022-09-01T00:31:28;8.93;;;8.23;;
10315;SDS011;5203;48.976;8.306;2022-09-01T00:33:54;8.55;;;7.82;;
10315;SDS011;5203;48.976;8.306;2022-09-01T00:36:20;7.65;;;7.05;;
10315;SDS011;5203;48.976;8.306;2022-09-01T00:38:46;8.68;;;8.07;;
10315;SDS011;5203;48.976;8.306;2022-09-01T00:41:13;8.23;;;7.43;;
10315;SDS011;5203;48.976;8.306;2022-09-01T00:43:43;8.13;;;7.53;;
10315;SDS011;5203;48.976;8.306;2022-09-01T00:46:22;8.05;;;7.35;;
10315;SDS011;5203;48.976;8.306;2022-09-01T00:48:52;7.53;;;6.93;;
10315;SDS011;5203;48.976;8.306;2022-09-01T00:51:21;8.13;;;7.53;;
10315;SDS011;5203;48.976;8.306;2022-09-01T00:53:47;8.45;;;7.47;;
10315;SDS011;5203;48.976;8.306;2022-09-01T00:56:14;7.82;;;7.22;;
10315;SDS011;5203;48.976;8.306;2022-09-01T00:58:39;8.10;;;7.47;;
10315;SDS011;5203;48.976;8.306;2022-09-01T01:01:06;7.60;;;7.00;;
10315;SDS011;5203;48.976;8.306;2022-09-01T01:03:33;8.05;;;7.45;;
10315;SDS011;5203;48.976;8.306;2022-09-01T01:06:00;7.38;;;6.88;;
10315;SDS011;5203;48.976;8.306;2022-09-01T01:08:31;7.32;;;6.72;;
10315;SDS011;5203;48.976;8.306;2022-09-01T01:11:11;7.75;;;6.82;;
10315;SDS011;5203;48.976;8.306;2022-09-01T01:14:01;8.18;;;7.55;;
10315;SDS011;5203;48.976;8.306;2022-09-01T01:16:37;7.82;;;7.13;;
10315;SDS011;5203;48.976;8.306;2022-09-01T01:22:09;7.35;;;6.65;;
10315;SDS011;5203;48.976;8.306;2022-09-01T01:25:06;7.60;;;6.93;;
10315;SDS011;5203;48.976;8.306;2022-09-01T01:27:32;7.28;;;6.68;;
10315;SDS011;5203;48.976;8.306;2022-09-01T01:30:00;7.22;;;6.60;;
10315;SDS011;5203;48.976;8.306;2022-09-01T01:32:27;7.35;;;6.75;;
10315;SDS011;5203;48.976;8.306;2022-09-01T01:34:53;7.25;;;6.70;;
10315;SDS011;5203;48.976;8.306;2022-09-01T01:37:20;7.50;;;6.72;;
10315;SDS011;5203;48.976;8.306;2022-09-01T01:39:49;7.18;;;6.53;;
10315;SDS011;5203;48.976;8.306;2022-09-01T01:42:15;7.38;;;6.82;;
10315;SDS011;5203;48.976;8.306;2022-09-01T01:44:42;6.53;;;5.90;;
10315;SDS011;5203;48.976;8.306;2022-09-01T01:47:10;7.13;;;6.53;;
10315;SDS011;5203;48.976;8.306;2022-09-01T01:49:38;7.30;;;6.80;;
10315;SDS011;5203;48.976;8.306;2022-09-01T01:52:07;6.97;;;6.40;;
10315;SDS011;5203;48.976;8.306;2022-09-01T01:54:35;7.15;;;6.65;;
10315;SDS011;5203;48.976;8.306;2022-09-01T01:57:02;6.38;;;5.93;;
10315;SDS011;5203;48.976;8.306;2022-09-01T01:59:32;7.10;;;6.60;;
10315;SDS011;5203;48.976;8.306;2022-09-01T02:01:58;6.38;;;5.85;;
10315;SDS011;5203;48.976;8.306;2022-09-01T02:04:29;6.50;;;5.88;;
10315;SDS011;5203;48.976;8.306;2022-09-01T02:06:58;6.65;;;6.15;;
10315;SDS011;5203;48.976;8.306;2022-09-01T02:09:24;6.75;;;6.15;;
10315;SDS011;5203;48.976;8.306;2022-09-01T02:11:49;6.30;;;5.70;;
10315;SDS011;5203;48.976;8.306;2022-09-01T02:14:19;6.72;;;6.15;;
10315;SDS011;5203;48.976;8.306;2022-09-01T02:16:45;6.93;;;6.32;;
10315;SDS011;5203;48.976;8.306;2022-09-01T02:19:11;7.43;;;6.72;;
10315;SDS011;5203;48.976;8.306;2022-09-01T02:21:37;6.88;;;6.38;;
10315;SDS011;5203;48.976;8.306;2022-09-01T02:24:08;6.68;;;6.28;;
10315;SDS011;5203;48.976;8.306;2022-09-01T02:26:40;7.13;;;6.05;;
10315;SDS011;5203;48.976;8.306;2022-09-01T02:29:14;6.90;;;6.40;;
10315;SDS011;5203;48.976;8.306;2022-09-01T02:31:44;5.88;;;5.38;;
10315;SDS011;5203;48.976;8.306;2022-09-01T02:34:11;6.43;;;5.93;;
10315;SDS011;5203;48.976;8.306;2022-09-01T02:36:45;6.40;;;5.80;;
10315;SDS011;5203;48.976;8.306;2022-09-01T02:39:16;7.13;;;6.57;;
10315;SDS011;5203;48.976;8.306;2022-09-01T02:41:47;6.55;;;6.15;;
10315;SDS011;5203;48.976;8.306;2022-09-01T02:44:14;7.53;;;6.93;;
10315;SDS011;5203;48.976;8.306;2022-09-01T02:46:40;6.50;;;6.00;;
10315;SDS011;5203;48.976;8.306;2022-09-01T02:49:12;7.00;;;6.30;;
10315;SDS011;5203;48.976;8.306;2022-09-01T02:51:42;7.03;;;6.53;;
10315;SDS011;5203;48.976;8.306;2022-09-01T02:54:09;7.22;;;6.55;;
10315;SDS011;5203;48.976;8.306;2022-09-01T02:56:40;7.38;;;6.78;;
10315;SDS011;5203;48.976;8.306;2022-09-01T02:59:06;6.55;;;6.05;;
10315;SDS011;5203;48.976;8.306;2022-09-01T03:01:36;6.85;;;6.25;;
10315;SDS011;5203;48.976;8.306;2022-09-01T03:04:04;7.38;;;6.68;;
10315;SDS011;5203;48.976;8.306;2022-09-01T03:06:34;7.40;;;6.70;;
10315;SDS011;5203;48.976;8.306;2022-09-01T03:09:02;7.05;;;6.50;;
10315;SDS011;5203;48.976;8.306;2022-09-01T03:11:34;6.68;;;6.18;;
10315;SDS011;5203;48.976;8.306;2022-09-01T03:14:01;7.35;;;6.70;;
10315;SDS011;5203;48.976;8.306;2022-09-01T03:16:28;7.53;;;6.93;;
10315;SDS011;5203;48.976;8.306;2022-09-01T03:18:55;6.95;;;6.45;;
10315;SDS011;5203;48.976;8.306;2022-09-01T03:21:21;6.90;;;6.30;;
10315;SDS011;5203;48.976;8.306;2022-09-01T03:23:47;7.63;;;6.93;;
10315;SDS011;5203;48.976;8.306;2022-09-01T03:26:15;7.07;;;6.38;;
10315;SDS011;5203;48.976;8.306;2022-09-01T03:28:43;7.27;;;6.57;;
10315;SDS011;5203;48.976;8.306;2022-09-01T03:31:10;7.70;;;7.00;;
10315;SDS011;5203;48.976;8.306;2022-09-01T03:33:36;7.30;;;6.67;;
10315;SDS011;5203;48.976;8.306;2022-09-01T03:36:02;7.53;;;6.83;;
10315;SDS011;5203;48.976;8.306;2022-09-01T03:38:28;7.70;;;7.10;;
10315;SDS011;5203;48.976;8.306;2022-09-01T03:41:03;7.70;;;7.07;;
10315;SDS011;5203;48.976;8.306;2022-09-01T03:43:30;7.13;;;6.55;;
10315;SDS011;5203;48.976;8.306;2022-09-01T03:45:57;7.80;;;6.97;;
10315;SDS011;5203;48.976;8.306;2022-09-01T03:48:24;7.88;;;7.18;;
10315;SDS011;5203;48.976;8.306;2022-09-01T03:50:52;7.53;;;6.80;;
10315;SDS011;5203;48.976;8.306;2022-09-01T03:53:20;7.50;;;6.80;;
10315;SDS011;5203;48.976;8.306;2022-09-01T03:55:51;7.60;;;7.00;;
10315;SDS011;5203;48.976;8.306;2022-09-01T03:58:19;7.82;;;7.25;;
10315;SDS011;5203;48.976;8.306;2022-09-01T04:00:46;7.75;;;7.15;;
10315;SDS011;5203;48.976;8.306;2022-09-01T04:03:15;7.75;;;7.15;;
10315;SDS011;5203;48.976;8.306;2022-09-01T04:05:46;8.30;;;7.50;;
10315;SDS011;5203;48.976;8.306;2022-09-01T04:08:12;8.27;;;7.53;;
10315;SDS011;5203;48.976;8.306;2022-09-01T04:10:48;8.30;;;7.68;;
10315;SDS011;5203;48.976;8.306;2022-09-01T04:13:21;9.10;;;8.30;;
10315;SDS011;5203;48.976;8.306;2022-09-01T04:15:50;8.70;;;7.33;;
10315;SDS011;5203;48.976;8.306;2022-09-01T04:18:16;8.47;;;7.83;;
10315;SDS011;5203;48.976;8.306;2022-09-01T04:20:47;9.13;;;8.32;;
10315;SDS011;5203;48.976;8.306;2022-09-01T04:25:51;9.00;;;8.30;;
10315;SDS011;5203;48.976;8.306;2022-09-01T04:28:19;9.40;;;8.60;;
10315;SDS011;5203;48.976;8.306;2022-09-01T04:30:53;9.27;;;8.57;;
10315;SDS011;5203;48.976;8.306;2022-09-01T04:33:21;10.87;;;8.30;;
10315;SDS011;5203;48.976;8.306;2022-09-01T04:35:52;8.97;;;8.27;;
10315;SDS011;5203;48.976;8.306;2022-09-01T04:38:21;10.17;;;8.60;;
10315;SDS011;5203;48.976;8.306;2022-09-01T04:40:49;9.80;;;9.07;;
10315;SDS011;5203;48.976;8.306;2022-09-01T04:43:15;9.57;;;8.87;;
10315;SDS011;5203;48.976;8.306;2022-09-01T04:45:41;9.30;;;8.60;;
10315;SDS011;5203;48.976;8.306;2022-09-01T04:48:09;8.97;;;8.10;;
10315;SDS011;5203;48.976;8.306;2022-09-01T04:50:35;9.33;;;8.53;;
10315;SDS011;5203;48.976;8.306;2022-09-01T04:53:05;9.07;;;8.37;;
10315;SDS011;5203;48.976;8.306;2022-09-01T04:55:31;9.17;;;8.47;;
10315;SDS011;5203;48.976;8.306;2022-09-01T04:57:58;8.90;;;8.23;;
10315;SDS011;5203;48.976;8.306;2022-09-01T05:00:25;8.15;;;7.55;;
10315;SDS011;5203;48.976;8.306;2022-09-01T05:02:57;9.23;;;8.33;;
10315;SDS011;5203;48.976;8.306;2022-09-01T05:05:28;9.53;;;8.73;;
10315;SDS011;5203;48.976;8.306;2022-09-01T05:08:03;10.13;;;9.10;;
10315;SDS011;5203;48.976;8.306;2022-09-01T05:10:30;10.20;;;9.30;;
10315;SDS011;5203;48.976;8.306;2022-09-01T05:12:57;9.73;;;8.73;;
10315;SDS011;5203;48.976;8.306;2022-09-01T05:15:23;10.37;;;9.53;;
10315;SDS011;5203;48.976;8.306;2022-09-01T05:17:48;10.60;;;9.80;;
10315;SDS011;5203;48.976;8.306;2022-09-01T05:20:15;9.90;;;9.20;;
10315;SDS011;5203;48.976;8.306;2022-09-01T05:22:41;10.40;;;9.40;;
10315;SDS011;5203;48.976;8.306;2022-09-01T05:25:07;10.50;;;9.53;;
10315;SDS011;5203;48.976;8.306;2022-09-01T05:27:40;10.13;;;9.43;;
10315;SDS011;5203;48.976;8.306;2022-09-01T05:30:14;10.27;;;9.47;;
10315;SDS011;5203;48.976;8.306;2022-09-01T05:32:42;10.70;;;9.80;;
10315;SDS011;5203;48.976;8.306;2022-09-01T05:35:12;10.60;;;9.77;;
10315;SDS011;5203;48.976;8.306;2022-09-01T05:37:38;11.83;;;10.53;;
10315;SDS011;5203;48.976;8.306;2022-09-01T05:40:06;11.07;;;9.97;;
10315;SDS011;5203;48.976;8.306;2022-09-01T05:42:40;10.67;;;9.77;;
10315;SDS011;5203;48.976;8.306;2022-09-01T05:45:08;10.53;;;9.73;;
10315;SDS011;5203;48.976;8.306;2022-09-01T05:47:38;11.27;;;10.37;;
10315;SDS011;5203;48.976;8.306;2022-09-01T05:50:06;10.30;;;9.50;;
10315;SDS011;5203;48.976;8.306;2022-09-01T05:52:35;10.37;;;9.53;;
10315;SDS011;5203;48.976;8.306;2022-09-01T05:55:02;11.40;;;10.30;;
10315;SDS011;5203;48.976;8.306;2022-09-01T05:57:33;12.57;;;11.37;;
10315;SDS011;5203;48.976;8.306;2022-09-01T06:00:00;12.65;;;11.70;;
10315;SDS011;5203;48.976;8.306;2022-09-01T06:02:34;12.02;;;10.88;;
10315;SDS011;5203;48.976;8.306;2022-09-01T06:05:01;11.70;;;10.60;;
10315;SDS011;5203;48.976;8.306;2022-09-01T06:07:27;13.20;;;11.10;;
10315;SDS011;5203;48.976;8.306;2022-09-01T06:09:53;13.07;;;11.77;;
10315;SDS011;5203;48.976;8.306;2022-09-01T06:12:19;12.88;;;11.68;;
10315;SDS011;5203;48.976;8.306;2022-09-01T06:14:47;12.50;;;11.40;;
10315;SDS011;5203;48.976;8.306;2022-09-01T06:17:15;14.27;;;12.82;;
10315;SDS011;5203;48.976;8.306;2022-09-01T06:19:46;13.90;;;12.70;;
10315;SDS011;5203;48.976;8.306;2022-09-01T06:22:12;12.55;;;11.50;;
10315;SDS011;5203;48.976;8.306;2022-09-01T06:24:38;12.93;;;11.82;;
10315;SDS011;5203;48.976;8.306;2022-09-01T06:27:05;14.63;;;12.18;;
10315;SDS011;5203;48.976;8.306;2022-09-01T06:29:34;12.70;;;11.45;;
10315;SDS011;5203;48.976;8.306;2022-09-01T06:32:04;11.88;;;10.85;;
10315;SDS011;5203;48.976;8.306;2022-09-01T06:34:41;12.45;;;11.55;;
10315;SDS011;5203;48.976;8.306;2022-09-01T06:37:15;13.43;;;11.95;;
10315;SDS011;5203;48.976;8.306;2022-09-01T06:39:46;12.80;;;11.68;;
10315;SDS011;5203;48.976;8.306;2022-09-01T06:42:12;25.77;;;12.00;;
10315;SDS011;5203;48.976;8.306;2022-09-01T06:44:39;20.45;;;12.73;;
10315;SDS011;5203;48.976;8.306;2022-09-01T06:47:05;12.23;;;11.05;;
10315;SDS011;5203;48.976;8.306;2022-09-01T06:49:32;11.80;;;10.80;;
10315;SDS011;5203;48.976;8.306;2022-09-01T06:51:59;13.02;;;11.93;;
10315;SDS011;5203;48.976;8.306;2022-09-01T06:54:26;12.05;;;11.15;;
10315;SDS011;5203;48.976;8.306;2022-09-01T06:56:55;12.68;;;11.57;;
10315;SDS011;5203;48.976;8.306;2022-09-01T06:59:22;12.85;;;11.70;;
10315;SDS011;5203;48.976;8.306;2022-09-01T07:01:56;12.38;;;11.27;;
10315;SDS011;5203;48.976;8.306;2022-09-01T07:04:25;13.52;;;12.32;;
10315;SDS011;5203;48.976;8.306;2022-09-01T07:06:53;12.55;;;11.65;;
10315;SDS011;5203;48.976;8.306;2022-09-01T07:09:21;12.82;;;11.63;;
10315;SDS011;5203;48.976;8.306;2022-09-01T07:11:47;13.70;;;12.48;;
10315;SDS011;5203;48.976;8.306;2022-09-01T07:14:13;13.15;;;12.07;;
10315;SDS011;5203;48.976;8.306;2022-09-01T07:16:41;13.32;;;12.25;;
10315;SDS011;5203;48.976;8.306;2022-09-01T07:19:08;12.52;;;11.43;;
10315;SDS011;5203;48.976;8.306;2022-09-01T07:21:37;13.80;;;12.55;;
10315;SDS011;5203;48.976;8.306;2022-09-01T07:24:03;13.82;;;12.43;;
10315;SDS011;5203;48.976;8.306;2022-09-01T07:26:30;13.65;;;12.38;;
10315;SDS011;5203;48.976;8.306;2022-09-01T07:28:57;14.00;;;12.52;;
10315;SDS011;5203;48.976;8.306;2022-09-01T07:31:31;12.77;;;11.75;;
10315;SDS011;5203;48.976;8.306;2022-09-01T07:34:03;11.95;;;10.85;;
10315;SDS011;5203;48.976;8.306;2022-09-01T07:36:36;13.25;;;12.15;;
10315;SDS011;5203;48.976;8.306;2022-09-01T07:39:09;12.25;;;11.20;;
10315;SDS011;5203;48.976;8.306;2022-09-01T07:41:38;13.02;;;11.88;;
10315;SDS011;5203;48.976;8.306;2022-09-01T07:44:06;12.95;;;11.93;;
10315;SDS011;5203;48.976;8.306;2022-09-01T07:46:34;13.02;;;11.90;;
10315;SDS011;5203;48.976;8.306;2022-09-01T07:49:01;12.75;;;11.75;;
10315;SDS011;5203;48.976;8.306;2022-09-01T07:51:27;13.82;;;12.50;;
10315;SDS011;5203;48.976;8.306;2022-09-01T07:53:54;12.70;;;11.70;;
10315;SDS011;5203;48.976;8.306;2022-09-01T07:56:21;12.63;;;11.38;;
10315;SDS011;5203;48.976;8.306;2022-09-01T07:58:49;12.00;;;10.93;;
10315;SDS011;5203;48.976;8.306;2022-09-01T08:01:23;14.13;;;11.68;;
10315;SDS011;5203;48.976;8.306;2022-09-01T08:03:52;11.80;;;10.90;;
10315;SDS011;5203;48.976;8.306;2022-09-01T08:06:23;12.18;;;11.20;;
10315;SDS011;5203;48.976;8.306;2022-09-01T08:08:51;12.32;;;11.25;;
10315;SDS011;5203;48.976;8.306;2022-09-01T08:11:23;12.40;;;11.25;;
10315;SDS011;5203;48.976;8.306;2022-09-01T08:13:51;11.88;;;10.88;;
10315;SDS011;5203;48.976;8.306;2022-09-01T08:16:18;11.07;;;10.05;;
10315;SDS011;5203;48.976;8.306;2022-09-01T08:18:44;11.35;;;10.45;;
10315;SDS011;5203;48.976;8.306;2022-09-01T08:21:12;11.98;;;11.02;;
10315;SDS011;5203;48.976;8.306;2022-09-01T08:23:39;11.15;;;10.18;;
10315;SDS011;5203;48.976;8.306;2022-09-01T08:26:11;10.70;;;9.90;;
10315;SDS011;5203;48.976;8.306;2022-09-01T08:28:39;10.23;;;9.18;;
10315;SDS011;5203;48.976;8.306;2022-09-01T08:31:09;11.98;;;10.45;;
10315;SDS011;5203;48.976;8.306;2022-09-01T08:33:36;11.05;;;10.15;;
10315;SDS011;5203;48.976;8.306;2022-09-01T08:36:03;9.93;;;9.10;;
10315;SDS011;5203;48.976;8.306;2022-09-01T08:38:35;9.55;;;8.75;;
10315;SDS011;5203;48.976;8.306;2022-09-01T08:41:01;9.02;;;8.30;;
10315;SDS011;5203;48.976;8.306;2022-09-01T08:43:45;9.32;;;8.63;;
10315;SDS011;5203;48.976;8.306;2022-09-01T08:46:31;9.57;;;8.85;;
10315;SDS011;5203;48.976;8.306;2022-09-01T08:49:03;9.52;;;8.65;;
10315;SDS011;5203;48.976;8.306;2022-09-01T08:51:42;9.63;;;8.85;;
10315;SDS011;5203;48.976;8.306;2022-09-01T08:57:01;9.63;;;8.85;;
10315;SDS011;5203;48.976;8.306;2022-09-01T08:59:30;9.50;;;8.60;;
10315;SDS011;5203;48.976;8.306;2022-09-01T09:02:04;9.75;;;9.00;;
10315;SDS011;5203;48.976;8.306;2022-09-01T09:07:31;8.68;;;7.88;;
10315;SDS011;5203;48.976;8.306;2022-09-01T09:10:19;9.00;;;8.20;;
10315;SDS011;5203;48.976;8.306;2022-09-01T09:21:24;8.32;;;7.72;;
10315;SDS011;5203;48.976;8.306;2022-09-01T09:23:55;8.40;;;7.80;;
10315;SDS011;5203;48.976;8.306;2022-09-01T09:26:30;7.72;;;7.13;;
10315;SDS011;5203;48.976;8.306;2022-09-01T09:28:56;7.68;;;7.07;;
10315;SDS011;5203;48.976;8.306;2022-09-01T09:31:32;7.47;;;6.80;;
10315;SDS011;5203;48.976;8.306;2022-09-01T09:34:02;7.53;;;6.93;;
10315;SDS011;5203;48.976;8.306;2022-09-01T09:36:41;7.28;;;6.75;;
10315;SDS011;5203;48.976;8.306;2022-09-01T09:41:38;7.30;;;6.70;;
10315;SDS011;5203;48.976;8.306;2022-09-01T09:46:50;6.90;;;6.20;;
10315;SDS011;5203;48.976;8.306;2022-09-01T09:49:21;6.93;;;6.05;;
10315;SDS011;5203;48.976;8.306;2022-09-01T09:54:33;7.05;;;6.55;;
10315;SDS011;5203;48.976;8.306;2022-09-01T09:59:37;6.30;;;5.80;;
10315;SDS011;5203;48.976;8.306;2022-09-01T10:04:47;6.10;;;5.60;;
10315;SDS011;5203;48.976;8.306;2022-09-01T10:10:03;5.65;;;5.25;;
10315;SDS011;5203;48.976;8.306;2022-09-01T10:12:48;5.88;;;5.38;;
10315;SDS011;5203;48.976;8.306;2022-09-01T10:15:16;5.55;;;5.15;;
10315;SDS011;5203;48.976;8.306;2022-09-01T10:17:46;5.72;;;5.22;;
10315;SDS011;5203;48.976;8.306;2022-09-01T10:20:17;5.63;;;5.22;;
10315;SDS011;5203;48.976;8.306;2022-09-01T10:22:47;5.93;;;5.50;;
10315;SDS011;5203;48.976;8.306;2022-09-01T10:25:21;5.38;;;4.93;;
10315;SDS011;5203;48.976;8.306;2022-09-01T10:27:54;6.20;;;5.70;;
10315;SDS011;5203;48.976;8.306;2022-09-01T10:30:23;5.85;;;5.43;;
10315;SDS011;5203;48.976;8.306;2022-09-01T10:32:53;5.45;;;4.95;;
10315;SDS011;5203;48.976;8.306;2022-09-01T10:35:26;5.50;;;5.03;;
10315;SDS011;5203;48.976;8.306;2022-09-01T10:37:56;5.28;;;4.90;;
10315;SDS011;5203;48.976;8.306;2022-09-01T10:42:56;5.65;;;5.15;;
10315;SDS011;5203;48.976;8.306;2022-09-01T10:50:46;5.32;;;4.82;;
10315;SDS011;5203;48.976;8.306;2022-09-01T10:53:36;6.05;;;5.65;;
10315;SDS011;5203;48.976;8.306;2022-09-01T10:56:08;5.97;;;5.57;;
10315;SDS011;5203;48.976;8.306;2022-09-01T11:04:11;5.70;;;5.28;;
10315;SDS011;5203;48.976;8.306;2022-09-01T11:09:06;6.10;;;5.70;;
10315;SDS011;5203;48.976;8.306;2022-09-01T11:14:55;5.70;;;5.30;;
10315;SDS011;5203;48.976;8.306;2022-09-01T11:20:41;6.10;;;5.68;;
10315;SDS011;5203;48.976;8.306;2022-09-01T11:25:34;5.70;;;5.30;;
10315;SDS011;5203;48.976;8.306;2022-09-01T11:28:06;6.30;;;5.72;;
10315;SDS011;5203;48.976;8.306;2022-09-01T11:30:51;6.15;;;5.75;;
10315;SDS011;5203;48.976;8.306;2022-09-01T11:36:02;5.80;;;5.40;;
10315;SDS011;5203;48.976;8.306;2022-09-01T11:38:31;6.03;;;5.63;;
10315;SDS011;5203;48.976;8.306;2022-09-01T11:41:07;6.35;;;5.80;;
10315;SDS011;5203;48.976;8.306;2022-09-01T11:43:33;6.38;;;5.88;;
10315;SDS011;5203;48.976;8.306;2022-09-01T11:48:49;6.45;;;6.05;;
10315;SDS011;5203;48.976;8.306;2022-09-01T11:51:14;7.05;;;6.55;;
10315;SDS011;5203;48.976;8.306;2022-09-01T11:53:41;6.72;;;6.32;;
10315;SDS011;5203;48.976;8.306;2022-09-01T11:56:19;6.88;;;6.28;;
10315;SDS011;5203;48.976;8.306;2022-09-01T11:58:50;8.85;;;7.13;;
10315;SDS011;5203;48.976;8.306;2022-09-01T12:01:21;6.50;;;6.10;;
10315;SDS011;5203;48.976;8.306;2022-09-01T12:04:16;7.05;;;6.55;;
10315;SDS011;5203;48.976;8.306;2022-09-01T12:06:49;6.30;;;5.90;;
10315;SDS011;5203;48.976;8.306;2022-09-01T12:09:31;5.72;;;5.32;;
10315;SDS011;5203;48.976;8.306;2022-09-01T12:12:07;6.38;;;5.97;;
10315;SDS011;5203;48.976;8.306;2022-09-01T12:14:54;5.95;;;5.45;;
10315;SDS011;5203;48.976;8.306;2022-09-01T12:17:22;6.43;;;5.82;;
10315;SDS011;5203;48.976;8.306;2022-09-01T12:19:47;5.88;;;5.47;;
10315;SDS011;5203;48.976;8.306;2022-09-01T12:22:14;6.03;;;5.63;;
10315;SDS011;5203;48.976;8.306;2022-09-01T12:24:43;6.30;;;5.85;;
10315;SDS011;5203;48.976;8.306;2022-09-01T12:27:11;7.20;;;6.70;;
10315;SDS011;5203;48.976;8.306;2022-09-01T12:29:37;6.20;;;5.70;;
10315;SDS011;5203;48.976;8.306;2022-09-01T12:32:03;6.18;;;5.78;;
10315;SDS011;5203;48.976;8.306;2022-09-01T12:37:09;6.35;;;5.95;;
10315;SDS011;5203;48.976;8.306;2022-09-01T12:39:48;6.90;;;6.40;;
10315;SDS011;5203;48.976;8.306;2022-09-01T12:47:43;5.85;;;5.45;;
10315;SDS011;5203;48.976;8.306;2022-09-01T12:52:56;6.47;;;6.03;;
10315;SDS011;5203;48.976;8.306;2022-09-01T12:55:31;6.63;;;6.00;;
10315;SDS011;5203;48.976;8.306;2022-09-01T12:58:06;5.72;;;5.32;;
10315;SDS011;5203;48.976;8.306;2022-09-01T13:00:34;6.10;;;5.70;;
10315;SDS011;5203;48.976;8.306;2022-09-01T13:05:34;6.03;;;5.63;;
10315;SDS011;5203;48.976;8.306;2022-09-01T13:08:15;6.68;;;6.15;;
10315;SDS011;5203;48.976;8.306;2022-09-01T13:10:52;5.90;;;5.47;;
10315;SDS011;5203;48.976;8.306;2022-09-01T13:13:21;6.28;;;5.68;;
10315;SDS011;5203;48.976;8.306;2022-09-01T13:15:50;6.50;;;6.10;;
10315;SDS011;5203;48.976;8.306;2022-09-01T13:18:23;6.13;;;5.72;;
10315;SDS011;5203;48.976;8.306;2022-09-01T13:20:49;6.40;;;6.00;;
10315;SDS011;5203;48.976;8.306;2022-09-01T13:23:17;6.65;;;6.25;;
10315;SDS011;5203;48.976;8.306;2022-09-01T13:25:44;6.43;;;5.93;;
10315;SDS011;5203;48.976;8.306;2022-09-01T13:28:11;6.53;;;6.13;;
10315;SDS011;5203;48.976;8.306;2022-09-01T13:30:38;6.35;;;5.95;;
10315;SDS011;5203;48.976;8.306;2022-09-01T13:33:05;5.97;;;5.60;;
10315;SDS011;5203;48.976;8.306;2022-09-01T13:35:31;6.38;;;5.82;;
10315;SDS011;5203;48.976;8.306;2022-09-01T13:37:56;6.00;;;5.60;;
10315;SDS011;5203;48.976;8.306;2022-09-01T13:40:22;6.00;;;5.70;;
10315;SDS011;5203;48.976;8.306;2022-09-01T13:42:49;6.45;;;6.05;;
10315;SDS011;5203;48.976;8.306;2022-09-01T13:45:17;6.90;;;6.40;;
10315;SDS011;5203;48.976;8.306;2022-09-01T13:47:45;6.55;;;6.15;;
10315;SDS011;5203;48.976;8.306;2022-09-01T13:50:15;6.15;;;5.72;;
10315;SDS011;5203;48.976;8.306;2022-09-01T13:52:44;5.80;;;5.50;;
10315;SDS011;5203;48.976;8.306;2022-09-01T13:55:13;6.60;;;6.00;;
10315;SDS011;5203;48.976;8.306;2022-09-01T13:57:42;5.70;;;5.30;;
10315;SDS011;5203;48.976;8.306;2022-09-01T14:00:09;6.05;;;5.65;;
10315;SDS011;5203;48.976;8.306;2022-09-01T14:02:38;6.32;;;5.93;;
10315;SDS011;5203;48.976;8.306;2022-09-01T14:05:05;5.70;;;5.30;;
10315;SDS011;5203;48.976;8.306;2022-09-01T14:07:31;5.65;;;5.25;;
10315;SDS011;5203;48.976;8.306;2022-09-01T14:09:57;5.50;;;5.07;;
10315;SDS011;5203;48.976;8.306;2022-09-01T14:12:22;5.25;;;4.95;;
10315;SDS011;5203;48.976;8.306;2022-09-01T14:14:48;5.60;;;5.30;;
10315;SDS011;5203;48.976;8.306;2022-09-01T14:17:14;5.70;;;5.25;;
10315;SDS011;5203;48.976;8.306;2022-09-01T14:19:40;6.20;;;5.80;;
10315;SDS011;5203;48.976;8.306;2022-09-01T14:22:06;5.40;;;5.00;;
10315;SDS011;5203;48.976;8.306;2022-09-01T14:24:35;6.05;;;5.65;;
10315;SDS011;5203;48.976;8.306;2022-09-01T14:27:02;5.15;;;4.75;;
10315;SDS011;5203;48.976;8.306;2022-09-01T14:29:27;5.68;;;5.28;;
10315;SDS011;5203;48.976;8.306;2022-09-01T14:31:53;5.70;;;5.30;;
10315;SDS011;5203;48.976;8.306;2022-09-01T14:34:21;5.55;;;5.15;;
10315;SDS011;5203;48.976;8.306;2022-09-01T14:36:48;5.10;;;4.80;;
10315;SDS011;5203;48.976;8.306;2022-09-01T14:39:17;5.60;;;5.20;;
10315;SDS011;5203;48.976;8.306;2022-09-01T14:41:42;5.43;;;5.13;;
10315;SDS011;5203;48.976;8.306;2022-09-01T14:44:08;5.65;;;5.35;;
10315;SDS011;5203;48.976;8.306;2022-09-01T14:46:34;5.63;;;5.32;;
10315;SDS011;5203;48.976;8.306;2022-09-01T14:49:01;5.20;;;4.90;;
10315;SDS011;5203;48.976;8.306;2022-09-01T14:51:28;5.78;;;5.47;;
10315;SDS011;5203;48.976;8.306;2022-09-01T14:53:55;6.15;;;5.75;;
10315;SDS011;5203;48.976;8.306;2022-09-01T14:56:22;5.85;;;5.40;;
10315;SDS011;5203;48.976;8.306;2022-09-01T14:58:49;5.80;;;5.40;;
10315;SDS011;5203;48.976;8.306;2022-09-01T15:01:17;5.28;;;4.93;;
10315;SDS011;5203;48.976;8.306;2022-09-01T15:03:49;6.07;;;5.53;;
10315;SDS011;5203;48.976;8.306;2022-09-01T15:06:16;5.75;;;5.45;;
10315;SDS011;5203;48.976;8.306;2022-09-01T15:08:43;5.30;;;4.93;;
10315;SDS011;5203;48.976;8.306;2022-09-01T15:11:11;5.97;;;5.50;;
10315;SDS011;5203;48.976;8.306;2022-09-01T15:13:38;5.57;;;5.28;;
10315;SDS011;5203;48.976;8.306;2022-09-01T15:16:10;5.30;;;5.00;;
10315;SDS011;5203;48.976;8.306;2022-09-01T15:18:42;5.57;;;5.28;;
10315;SDS011;5203;48.976;8.306;2022-09-01T15:21:16;4.82;;;4.53;;
10315;SDS011;5203;48.976;8.306;2022-09-01T15:23:43;5.60;;;5.30;;
10315;SDS011;5203;48.976;8.306;2022-09-01T15:26:09;5.70;;;5.10;;
10315;SDS011;5203;48.976;8.306;2022-09-01T15:28:35;5.75;;;5.30;;
10315;SDS011;5203;48.976;8.306;2022-09-01T15:31:00;5.38;;;5.07;;
10315;SDS011;5203;48.976;8.306;2022-09-01T15:33:26;5.55;;;5.20;;
10315;SDS011;5203;48.976;8.306;2022-09-01T15:35:52;5.65;;;5.25;;
10315;SDS011;5203;48.976;8.306;2022-09-01T15:38:18;5.82;;;5.45;;
10315;SDS011;5203;48.976;8.306;2022-09-01T15:40:44;5.00;;;4.72;;
10315;SDS011;5203;48.976;8.306;2022-09-01T15:43:10;6.00;;;5.60;;
10315;SDS011;5203;48.976;8.306;2022-09-01T15:45:36;6.55;;;5.30;;
10315;SDS011;5203;48.976;8.306;2022-09-01T15:48:03;5.80;;;5.50;;
10315;SDS011;5203;48.976;8.306;2022-09-01T15:50:29;5.45;;;5.15;;
10315;SDS011;5203;48.976;8.306;2022-09-01T15:52:55;5.88;;;5.47;;
10315;SDS011;5203;48.976;8.306;2022-09-01T15:55:24;5.93;;;5.53;;
10315;SDS011;5203;48.976;8.306;2022-09-01T15:57:52;5.80;;;5.50;;
10315;SDS011;5203;48.976;8.306;2022-09-01T16:00:19;5.75;;;5.45;;
10315;SDS011;5203;48.976;8.306;2022-09-01T16:02:47;5.72;;;5.43;;
10315;SDS011;5203;48.976;8.306;2022-09-01T16:05:12;5.90;;;5.50;;
10315;SDS011;5203;48.976;8.306;2022-09-01T16:07:39;5.43;;;5.13;;
10315;SDS011;5203;48.976;8.306;2022-09-01T16:10:05;6.00;;;5.50;;
10315;SDS011;5203;48.976;8.306;2022-09-01T16:12:36;6.22;;;5.72;;
10315;SDS011;5203;48.976;8.306;2022-09-01T16:15:08;5.82;;;5.53;;
10315;SDS011;5203;48.976;8.306;2022-09-01T16:20:29;5.80;;;5.40;;
10315;SDS011;5203;48.976;8.306;2022-09-01T16:25:45;5.80;;;5.40;;
10315;SDS011;5203;48.976;8.306;2022-09-01T16:28:24;6.43;;;6.03;;
10315;SDS011;5203;48.976;8.306;2022-09-01T16:31:01;5.90;;;5.60;;
10315;SDS011;5203;48.976;8.306;2022-09-01T16:33:33;5.10;;;4.68;;